createdAt,value
2022-09-18T00:01:00.907Z,11.21
2022-09-18T00:03:30.221Z,11.32
2022-09-18T00:05:57.920Z,11.16
2022-09-18T00:08:25.987Z,11.14
2022-09-18T00:10:53.690Z,11.22
2022-09-18T00:13:21.430Z,11.24
2022-09-18T00:15:56.223Z,11.24
2022-09-18T00:18:24.006Z,11.27
2022-09-18T00:20:53.123Z,11.20
2022-09-18T00:23:21.168Z,11.16
2022-09-18T00:25:48.834Z,11.11
2022-09-18T00:28:16.581Z,10.93
2022-09-18T00:30:44.265Z,10.89
2022-09-18T00:33:12.010Z,10.84
2022-09-18T00:35:43.258Z,10.90
2022-09-18T00:38:12.640Z,10.95
2022-09-18T00:40:40.746Z,10.95
2022-09-18T00:43:19.397Z,11.06
2022-09-18T00:45:52.094Z,11.12
2022-09-18T00:48:19.890Z,11.17
2022-09-18T00:50:47.725Z,11.03
2022-09-18T00:53:17.089Z,11.03
2022-09-18T00:55:45.293Z,10.94
2022-09-18T00:58:13.485Z,10.78
2022-09-18T01:00:41.233Z,10.63
2022-09-18T01:03:09.173Z,10.67
2022-09-18T01:05:53.491Z,10.53
2022-09-18T01:08:32.434Z,10.40
2022-09-18T01:11:14.812Z,10.47
2022-09-18T01:13:50.691Z,10.49
2022-09-18T01:16:24.554Z,10.61
2022-09-18T01:18:58.214Z,10.64
2022-09-18T01:21:32.134Z,10.51
2022-09-18T01:24:34.015Z,10.53
2022-09-18T01:27:05.266Z,10.61
2022-09-18T01:29:46.237Z,10.71
2022-09-18T01:32:21.970Z,10.64
2022-09-18T01:34:57.519Z,10.41
2022-09-18T01:37:33.602Z,10.17
2022-09-18T01:40:09.168Z,10.18
2022-09-18T01:42:39.109Z,10.16
2022-09-18T01:45:11.890Z,9.96
2022-09-18T01:47:46.912Z,9.90
2022-09-18T01:50:16.609Z,9.81
2022-09-18T01:52:47.964Z,9.96
2022-09-18T01:55:20.406Z,10.18
2022-09-18T01:57:54.378Z,10.28
2022-09-18T02:00:24.614Z,10.21
2022-09-18T02:02:56.162Z,10.05
2022-09-18T02:05:28.774Z,10.00
2022-09-18T02:08:08.074Z,9.90
2022-09-18T02:10:41.354Z,9.86
2022-09-18T02:13:12.329Z,9.93
2022-09-18T02:15:43.247Z,9.93
2022-09-18T02:18:17.422Z,9.93
2022-09-18T02:20:46.086Z,9.74
2022-09-18T02:23:15.426Z,9.49
2022-09-18T02:25:48.958Z,9.36
2022-09-18T02:28:18.269Z,9.27
2022-09-18T02:30:47.466Z,9.41
2022-09-18T02:33:25.924Z,9.45
2022-09-18T02:36:16.097Z,9.50
2022-09-18T02:38:50.866Z,9.50
2022-09-18T02:41:32.477Z,9.58
2022-09-18T02:44:08.523Z,9.65
2022-09-18T02:46:46.615Z,9.70
2022-09-18T02:49:24.806Z,9.66
2022-09-18T02:51:59.116Z,9.57
2022-09-18T02:54:33.829Z,9.62
2022-09-18T02:57:07.035Z,9.72
2022-09-18T02:59:40.178Z,9.87
2022-09-18T03:02:09.791Z,9.83
2022-09-18T03:04:37.581Z,9.61
2022-09-18T03:07:05.481Z,9.51
2022-09-18T03:09:34.661Z,9.45
2022-09-18T03:12:03.183Z,9.39
2022-09-18T03:14:31.458Z,9.31
2022-09-18T03:16:59.238Z,9.20
2022-09-18T03:19:28.721Z,9.14
2022-09-18T03:21:56.470Z,9.14
2022-09-18T03:24:25.294Z,9.10
2022-09-18T03:26:53.438Z,9.07
2022-09-18T03:29:21.250Z,9.06
2022-09-18T03:31:49.030Z,9.11
2022-09-18T03:34:16.781Z,9.06
2022-09-18T03:36:47.053Z,8.79
2022-09-18T03:39:16.214Z,8.83
2022-09-18T03:41:44.097Z,8.99
2022-09-18T03:44:11.958Z,9.12
2022-09-18T03:46:39.764Z,9.06
2022-09-18T03:49:08.631Z,9.01
2022-09-18T03:51:36.391Z,9.07
2022-09-18T03:54:06.265Z,8.77
2022-09-18T03:56:34.046Z,8.61
2022-09-18T03:59:01.769Z,8.71
2022-09-18T04:01:29.527Z,8.88
2022-09-18T04:03:57.466Z,8.99
2022-09-18T04:06:26.505Z,8.89
2022-09-18T04:08:54.222Z,8.73
2022-09-18T04:11:23.310Z,9.06
2022-09-18T04:13:51.114Z,9.02
2022-09-18T04:16:18.967Z,9.08
2022-09-18T04:18:46.766Z,8.96
2022-09-18T04:21:14.467Z,9.06
2022-09-18T04:23:42.198Z,9.23
2022-09-18T04:26:10.346Z,9.24
2022-09-18T04:28:39.471Z,9.21
2022-09-18T04:31:07.468Z,9.10
2022-09-18T04:33:35.251Z,9.10
2022-09-18T04:36:03.365Z,9.07
2022-09-18T04:38:31.082Z,9.07
2022-09-18T04:40:59.705Z,9.12
2022-09-18T04:43:28.774Z,9.07
2022-09-18T04:45:57.962Z,8.98
2022-09-18T04:48:25.770Z,8.49
2022-09-18T04:50:53.573Z,8.34
2022-09-18T04:53:21.415Z,8.41
2022-09-18T04:55:49.765Z,8.64
2022-09-18T04:58:18.735Z,8.73
2022-09-18T05:00:48.889Z,8.73
2022-09-18T05:03:19.342Z,8.81
2022-09-18T05:05:48.278Z,8.81
2022-09-18T05:08:16.005Z,8.61
2022-09-18T05:10:44.104Z,8.52
2022-09-18T05:13:11.858Z,8.59
2022-09-18T05:15:39.566Z,8.66
2022-09-18T05:18:11.449Z,8.78
2022-09-18T05:20:40.930Z,8.82
2022-09-18T05:23:08.690Z,8.88
2022-09-18T05:25:36.464Z,9.00
2022-09-18T05:28:05.100Z,9.02
2022-09-18T05:30:33.063Z,9.01
2022-09-18T05:33:02.142Z,8.99
2022-09-18T05:35:31.389Z,8.88
2022-09-18T05:38:00.734Z,8.78
2022-09-18T05:40:32.783Z,8.67
2022-09-18T05:43:01.002Z,8.48
2022-09-18T05:45:28.677Z,8.33
2022-09-18T05:47:57.977Z,8.33
2022-09-18T05:50:26.897Z,8.29
2022-09-18T05:53:01.350Z,8.27
2022-09-18T05:55:31.895Z,8.28
2022-09-18T05:58:02.390Z,8.43
2022-09-18T06:00:31.990Z,8.63
2022-09-18T06:03:01.356Z,8.71
2022-09-18T06:05:31.585Z,8.83
2022-09-18T06:08:01.676Z,8.88
2022-09-18T06:10:30.886Z,8.94
2022-09-18T06:13:02.611Z,8.96
2022-09-18T06:15:30.304Z,9.05
2022-09-18T06:17:58.134Z,9.07
2022-09-18T06:20:26.902Z,9.19
2022-09-18T06:22:54.623Z,9.32
2022-09-18T06:25:23.877Z,9.52
2022-09-18T06:27:58.373Z,9.61
2022-09-18T06:30:26.869Z,9.76
2022-09-18T06:32:56.796Z,9.86
2022-09-18T06:35:24.806Z,9.79
2022-09-18T06:37:52.501Z,9.79
2022-09-18T06:40:20.289Z,9.94
2022-09-18T06:42:49.391Z,10.17
2022-09-18T06:45:17.241Z,10.40
2022-09-18T06:47:44.939Z,10.48
2022-09-18T06:50:12.795Z,10.52
2022-09-18T06:52:40.569Z,10.52
2022-09-18T06:55:09.080Z,10.47
2022-09-18T06:57:36.851Z,10.47
2022-09-18T07:00:07.114Z,10.48
2022-09-18T07:02:34.844Z,10.43
2022-09-18T07:05:02.671Z,10.48
2022-09-18T07:07:30.390Z,10.62
2022-09-18T07:09:58.146Z,10.68
2022-09-18T07:12:25.828Z,10.77
2022-09-18T07:14:53.870Z,10.86
2022-09-18T07:17:26.151Z,10.90
2022-09-18T07:19:54.677Z,10.98
2022-09-18T07:22:22.364Z,11.19
2022-09-18T07:24:50.106Z,11.26
2022-09-18T07:27:17.792Z,11.44
2022-09-18T07:29:45.478Z,11.10
2022-09-18T07:32:13.310Z,11.36
2022-09-18T07:34:42.429Z,11.53
2022-09-18T07:37:10.081Z,11.52
2022-09-18T07:39:37.787Z,11.45
2022-09-18T07:42:08.949Z,11.54
2022-09-18T07:44:37.051Z,11.52
2022-09-18T07:47:05.540Z,11.72
2022-09-18T07:49:33.901Z,11.88
2022-09-18T07:52:03.374Z,12.25
2022-09-18T07:54:31.092Z,12.42
2022-09-18T07:56:58.838Z,12.70
2022-09-18T07:59:26.570Z,12.78
2022-09-18T08:01:55.902Z,12.87
2022-09-18T08:04:24.049Z,12.97
2022-09-18T08:06:58.051Z,12.86
2022-09-18T08:09:27.162Z,13.02
2022-09-18T08:11:54.914Z,13.28
2022-09-18T08:14:28.060Z,13.45
2022-09-18T08:16:57.704Z,13.61
2022-09-18T08:19:26.020Z,13.55
2022-09-18T08:21:53.819Z,13.99
2022-09-18T08:24:21.561Z,14.10
2022-09-18T08:26:50.643Z,14.29
2022-09-18T08:29:19.822Z,14.24
2022-09-18T08:31:48.026Z,14.47
2022-09-18T08:34:15.915Z,14.61
2022-09-18T08:36:43.712Z,14.87
2022-09-18T08:39:11.423Z,14.78
2022-09-18T08:41:56.906Z,14.91
2022-09-18T08:44:28.336Z,15.03
2022-09-18T08:47:04.574Z,15.19
2022-09-18T08:49:35.923Z,15.39
2022-09-18T08:52:10.010Z,15.54
2022-09-18T08:54:46.571Z,15.39
2022-09-18T08:57:22.478Z,15.55
2022-09-18T08:59:54.673Z,15.73
2022-09-18T09:02:33.973Z,15.95
2022-09-18T09:05:07.213Z,16.21
2022-09-18T09:07:50.542Z,16.32
2022-09-18T09:10:30.346Z,16.30
2022-09-18T09:13:17.786Z,16.35
2022-09-18T09:15:55.294Z,16.29
2022-09-18T09:18:31.074Z,16.33
2022-09-18T09:21:02.852Z,16.60
2022-09-18T09:23:43.317Z,16.48
2022-09-18T09:26:14.270Z,16.84
2022-09-18T09:28:52.674Z,16.99
2022-09-18T09:31:25.051Z,16.97
2022-09-18T09:33:58.563Z,17.09
2022-09-18T09:36:30.749Z,17.16
2022-09-18T09:39:05.709Z,17.08
2022-09-18T09:41:39.762Z,17.36
2022-09-18T09:44:31.884Z,17.50
2022-09-18T09:47:07.727Z,17.74
2022-09-18T09:49:52.434Z,17.83
2022-09-18T09:52:23.899Z,17.71
2022-09-18T09:54:55.592Z,17.82
2022-09-18T09:57:30.155Z,17.98
2022-09-18T10:00:10.883Z,17.73
2022-09-18T10:02:55.616Z,18.18
2022-09-18T10:05:30.058Z,18.42
2022-09-18T10:08:03.519Z,18.30
2022-09-18T10:10:38.749Z,18.48
2022-09-18T10:13:13.065Z,18.70
2022-09-18T10:15:45.149Z,18.74
2022-09-18T10:18:17.625Z,18.73
2022-09-18T10:20:46.625Z,18.91
2022-09-18T10:23:18.073Z,18.89
2022-09-18T10:25:51.037Z,18.79
2022-09-18T10:28:18.840Z,18.69
2022-09-18T10:30:57.658Z,18.70
2022-09-18T10:33:33.989Z,18.77
2022-09-18T10:36:13.210Z,18.70
2022-09-18T10:38:41.070Z,18.87
2022-09-18T10:41:27.670Z,19.04
2022-09-18T10:44:04.522Z,18.91
2022-09-18T10:46:36.941Z,19.03
2022-09-18T10:49:19.788Z,18.84
2022-09-18T10:51:47.568Z,18.72
2022-09-18T10:54:18.847Z,18.80
2022-09-18T10:56:47.034Z,18.88
2022-09-18T10:59:32.073Z,19.10
2022-09-18T11:02:02.852Z,19.42
2022-09-18T11:04:32.093Z,19.67
2022-09-18T11:07:03.103Z,19.61
2022-09-18T11:09:34.490Z,19.29
2022-09-18T11:12:03.086Z,19.47
2022-09-18T11:14:34.053Z,19.36
2022-09-18T11:17:04.851Z,19.39
2022-09-18T11:19:34.887Z,19.74
2022-09-18T11:22:05.821Z,19.77
2022-09-18T11:24:36.030Z,19.81
2022-09-18T11:27:16.956Z,19.68
2022-09-18T11:29:44.961Z,19.68
2022-09-18T11:32:20.517Z,19.80
2022-09-18T11:34:51.853Z,19.95
2022-09-18T11:37:29.452Z,19.83
2022-09-18T11:40:04.308Z,19.90
2022-09-18T11:42:32.596Z,19.90
2022-09-18T11:45:16.680Z,19.85
2022-09-18T11:47:49.182Z,20.28
2022-09-18T11:50:21.113Z,20.64
2022-09-18T11:52:54.014Z,20.77
2022-09-18T11:55:30.914Z,20.59
2022-09-18T11:58:03.209Z,20.35
2022-09-18T12:00:37.576Z,20.25
2022-09-18T12:03:20.196Z,20.29
2022-09-18T12:05:54.931Z,20.48
2022-09-18T12:08:37.000Z,20.43
2022-09-18T12:11:10.700Z,20.43
2022-09-18T12:13:55.127Z,20.38
2022-09-18T12:16:32.215Z,20.53
2022-09-18T12:19:06.049Z,20.74
2022-09-18T12:21:44.495Z,21.02
2022-09-18T12:24:14.784Z,20.87
2022-09-18T12:26:52.846Z,21.14
2022-09-18T12:29:38.558Z,21.32
2022-09-18T12:32:23.953Z,21.28
2022-09-18T12:35:01.232Z,21.66
2022-09-18T12:37:45.620Z,21.02
2022-09-18T12:40:34.626Z,21.01
2022-09-18T12:43:22.406Z,21.24
2022-09-18T12:46:20.800Z,21.25
2022-09-18T12:49:06.340Z,21.39
2022-09-18T12:51:42.816Z,21.56
2022-09-18T12:54:36.833Z,21.16
2022-09-18T12:57:20.075Z,21.41
2022-09-18T12:59:57.504Z,21.56
2022-09-18T13:02:36.960Z,21.79
2022-09-18T13:05:12.476Z,21.54
2022-09-18T13:07:46.086Z,21.67
2022-09-18T13:10:20.561Z,21.43
2022-09-18T13:12:55.413Z,21.41
2022-09-18T13:15:26.762Z,21.30
2022-09-18T13:18:01.136Z,21.86
2022-09-18T13:20:33.486Z,21.84
2022-09-18T13:23:03.133Z,21.79
2022-09-18T13:25:35.081Z,21.64
2022-09-18T13:28:06.029Z,21.80
2022-09-18T13:30:34.601Z,22.10
2022-09-18T13:33:03.453Z,21.90
2022-09-18T13:35:33.790Z,21.54
2022-09-18T13:38:16.337Z,22.08
2022-09-18T13:40:46.492Z,22.36
2022-09-18T13:43:39.645Z,22.03
2022-09-18T13:46:10.382Z,22.06
2022-09-18T13:48:45.665Z,22.17
2022-09-18T13:51:22.000Z,22.39
2022-09-18T13:54:16.948Z,22.78
2022-09-18T13:57:22.334Z,23.18
2022-09-18T13:59:52.907Z,23.14
2022-09-18T14:02:24.979Z,22.97
2022-09-18T14:05:01.256Z,22.92
2022-09-18T14:07:53.571Z,22.39
2022-09-18T14:10:26.250Z,22.44
2022-09-18T14:13:25.664Z,22.96
2022-09-18T14:16:00.022Z,22.46
2022-09-18T14:18:30.854Z,22.00
2022-09-18T14:21:15.286Z,22.34
2022-09-18T14:24:05.305Z,21.99
2022-09-18T14:27:04.115Z,22.35
2022-09-18T14:29:34.588Z,22.79
2022-09-18T14:32:03.376Z,22.36
2022-09-18T14:34:37.524Z,22.10
2022-09-18T14:37:24.377Z,22.27
2022-09-18T14:39:53.982Z,22.00
2022-09-18T14:42:32.586Z,22.07
2022-09-18T14:45:21.412Z,22.17
2022-09-18T14:47:50.595Z,22.77
2022-09-18T14:50:34.957Z,22.40
2022-09-18T14:53:07.496Z,22.42
2022-09-18T14:55:40.380Z,22.06
2022-09-18T14:58:14.979Z,22.44
2022-09-18T15:00:43.380Z,22.58
2022-09-18T15:03:19.256Z,22.42
2022-09-18T15:05:48.152Z,21.92
2022-09-18T15:08:18.479Z,21.92
2022-09-18T15:10:49.513Z,21.80
2022-09-18T15:13:20.584Z,22.10
2022-09-18T15:15:58.266Z,22.09
2022-09-18T15:18:28.436Z,21.56
2022-09-18T15:20:57.561Z,21.75
2022-09-18T15:23:28.063Z,21.97
2022-09-18T15:25:58.245Z,21.81
2022-09-18T15:28:30.127Z,22.06
2022-09-18T15:31:03.417Z,22.26
2022-09-18T15:33:34.434Z,22.06
2022-09-18T15:36:04.529Z,22.25
2022-09-18T15:38:40.953Z,21.93
2022-09-18T15:41:23.238Z,22.21
2022-09-18T15:43:52.344Z,22.05
2022-09-18T15:46:27.631Z,22.08
2022-09-18T15:48:59.443Z,21.90
2022-09-18T15:51:29.304Z,21.93
2022-09-18T15:54:26.489Z,22.01
2022-09-18T15:56:56.493Z,21.86
2022-09-18T15:59:30.876Z,21.79
2022-09-18T16:01:59.269Z,21.48
2022-09-18T16:04:32.366Z,21.55
2022-09-18T16:07:01.526Z,21.76
2022-09-18T16:09:42.623Z,21.56
2022-09-18T16:12:34.945Z,21.60
2022-09-18T16:15:16.712Z,21.65
2022-09-18T16:18:03.864Z,21.55
2022-09-18T16:20:41.572Z,21.55
2022-09-18T16:23:24.104Z,21.54
2022-09-18T16:26:10.407Z,21.39
2022-09-18T16:28:42.870Z,21.19
2022-09-18T16:31:13.027Z,20.97
2022-09-18T16:33:50.784Z,20.75
2022-09-18T16:36:25.635Z,20.66
2022-09-18T16:38:53.377Z,20.64
2022-09-18T16:41:21.434Z,20.66
2022-09-18T16:43:49.653Z,20.64
2022-09-18T16:46:20.716Z,20.53
2022-09-18T16:48:48.604Z,20.67
2022-09-18T16:51:16.437Z,20.68
2022-09-18T16:53:44.165Z,20.58
2022-09-18T16:56:15.458Z,20.61
2022-09-18T16:58:44.369Z,20.41
2022-09-18T17:01:12.167Z,20.23
2022-09-18T17:03:41.245Z,20.29
2022-09-18T17:06:09.101Z,20.26
2022-09-18T17:08:37.035Z,20.31
2022-09-18T17:11:06.158Z,20.04
2022-09-18T17:13:34.008Z,20.06
2022-09-18T17:16:02.262Z,19.89
2022-09-18T17:18:29.986Z,19.64
2022-09-18T17:21:02.134Z,19.63
2022-09-18T17:23:31.093Z,19.55
2022-09-18T17:26:05.148Z,19.48
2022-09-18T17:28:33.195Z,19.52
2022-09-18T17:31:01.729Z,19.35
2022-09-18T17:33:29.431Z,19.34
2022-09-18T17:35:57.130Z,19.00
2022-09-18T17:38:26.205Z,18.94
2022-09-18T17:40:58.095Z,18.85
2022-09-18T17:43:26.162Z,18.79
2022-09-18T17:45:57.890Z,18.70
2022-09-18T17:48:27.004Z,18.88
2022-09-18T17:50:58.643Z,18.76
2022-09-18T17:53:28.340Z,18.75
2022-09-18T17:55:57.405Z,18.59
2022-09-18T17:58:25.142Z,18.34
2022-09-18T18:00:52.856Z,18.40
2022-09-18T18:03:20.577Z,18.27
2022-09-18T18:05:52.884Z,18.15
2022-09-18T18:08:20.956Z,18.14
2022-09-18T18:10:50.118Z,18.13
2022-09-18T18:13:18.956Z,18.01
2022-09-18T18:15:48.048Z,17.98
2022-09-18T18:18:15.786Z,17.84
2022-09-18T18:20:50.385Z,17.83
2022-09-18T18:23:18.141Z,17.77
2022-09-18T18:25:47.129Z,17.69
2022-09-18T18:28:16.186Z,17.53
2022-09-18T18:30:45.949Z,17.47
2022-09-18T18:33:13.638Z,17.32
2022-09-18T18:35:41.672Z,17.39
2022-09-18T18:38:09.410Z,17.33
2022-09-18T18:40:38.775Z,17.31
2022-09-18T18:43:06.517Z,17.16
2022-09-18T18:45:35.776Z,17.13
2022-09-18T18:48:04.941Z,16.91
2022-09-18T18:50:35.040Z,17.02
2022-09-18T18:53:02.766Z,16.83
2022-09-18T18:55:30.531Z,16.65
2022-09-18T18:57:58.265Z,16.89
2022-09-18T19:00:27.350Z,16.71
2022-09-18T19:02:56.463Z,16.74
2022-09-18T19:05:30.306Z,16.70
2022-09-18T19:07:58.794Z,16.56
2022-09-18T19:10:27.251Z,16.52
2022-09-18T19:12:57.137Z,16.41
2022-09-18T19:15:25.151Z,16.41
2022-09-18T19:17:53.050Z,16.16
2022-09-18T19:20:22.322Z,16.31
2022-09-18T19:22:56.620Z,16.34
2022-09-18T19:25:25.732Z,16.38
2022-09-18T19:27:56.331Z,16.35
2022-09-18T19:30:25.281Z,16.18
2022-09-18T19:32:55.477Z,16.20
2022-09-18T19:35:24.517Z,16.15
2022-09-18T19:37:52.208Z,16.04
2022-09-18T19:40:20.081Z,16.01
2022-09-18T19:43:01.566Z,16.02
2022-09-18T19:45:30.918Z,16.03
2022-09-18T19:47:58.717Z,15.90
2022-09-18T19:50:29.892Z,15.81
2022-09-18T19:52:57.856Z,15.73
2022-09-18T19:55:25.778Z,15.74
2022-09-18T19:57:57.148Z,15.70
2022-09-18T20:00:25.870Z,15.68
2022-09-18T20:02:58.026Z,15.64
2022-09-18T20:05:27.837Z,15.59
2022-09-18T20:07:55.667Z,15.52
2022-09-18T20:10:23.800Z,15.44
2022-09-18T20:12:53.933Z,15.48
2022-09-18T20:15:21.682Z,15.38
2022-09-18T20:17:49.428Z,15.28
2022-09-18T20:20:17.355Z,15.17
2022-09-18T20:22:46.393Z,15.33
2022-09-18T20:25:14.182Z,15.31
2022-09-18T20:27:43.019Z,15.33
2022-09-18T20:30:12.524Z,15.17
2022-09-18T20:32:40.282Z,15.15
2022-09-18T20:35:08.825Z,15.10
2022-09-18T20:37:36.812Z,15.16
2022-09-18T20:40:12.807Z,15.18
2022-09-18T20:42:40.646Z,15.09
2022-09-18T20:45:08.854Z,15.10
2022-09-18T20:47:37.678Z,15.14
2022-09-18T20:50:06.977Z,15.13
2022-09-18T20:52:36.623Z,15.05
2022-09-18T20:55:12.389Z,14.93
2022-09-18T20:57:41.213Z,14.95
2022-09-18T21:00:11.228Z,14.92
2022-09-18T21:02:39.908Z,14.96
2022-09-18T21:05:11.462Z,14.97
2022-09-18T21:07:39.129Z,14.96
2022-09-18T21:10:09.480Z,14.97
2022-09-18T21:12:38.749Z,14.98
2022-09-18T21:15:09.177Z,14.97
2022-09-18T21:17:38.362Z,14.88
2022-09-18T21:20:07.171Z,14.91
2022-09-18T21:22:54.856Z,14.79
2022-09-18T21:25:24.668Z,14.69
2022-09-18T21:27:55.193Z,14.70
2022-09-18T21:30:24.074Z,14.62
2022-09-18T21:32:55.505Z,14.56
2022-09-18T21:35:23.711Z,14.48
2022-09-18T21:37:51.960Z,14.51
2022-09-18T21:40:19.776Z,14.50
2022-09-18T21:42:48.873Z,14.53
2022-09-18T21:45:20.613Z,14.55
2022-09-18T21:47:48.759Z,14.49
2022-09-18T21:50:16.629Z,14.34
2022-09-18T21:52:44.745Z,14.30
2022-09-18T21:55:12.538Z,14.35
2022-09-18T21:57:40.412Z,14.42
2022-09-18T22:00:11.453Z,14.38
2022-09-18T22:02:43.210Z,14.42
2022-09-18T22:05:12.221Z,14.33
2022-09-18T22:07:40.772Z,14.16
2022-09-18T22:10:09.545Z,14.07
2022-09-18T22:12:38.899Z,14.02
2022-09-18T22:15:07.753Z,13.96
2022-09-18T22:17:36.810Z,13.90
2022-09-18T22:20:05.356Z,13.88
2022-09-18T22:22:33.056Z,13.78
2022-09-18T22:25:02.222Z,13.81
2022-09-18T22:27:30.069Z,13.82
2022-09-18T22:29:57.798Z,13.92
2022-09-18T22:32:25.910Z,13.83
2022-09-18T22:34:55.860Z,13.84
2022-09-18T22:37:23.605Z,13.79
2022-09-18T22:39:51.390Z,13.80
2022-09-18T22:42:19.067Z,13.78
2022-09-18T22:44:46.757Z,13.80
2022-09-18T22:47:14.711Z,13.88
2022-09-18T22:49:42.452Z,13.92
2022-09-18T22:52:11.523Z,13.89
2022-09-18T22:54:39.260Z,13.78
2022-09-18T22:57:06.991Z,13.78
2022-09-18T22:59:35.435Z,13.77
2022-09-18T23:02:07.820Z,13.72
2022-09-18T23:04:36.218Z,13.61
2022-09-18T23:07:04.749Z,13.61
2022-09-18T23:09:33.884Z,13.58
2022-09-18T23:12:01.953Z,13.53
2022-09-18T23:14:31.436Z,13.37
2022-09-18T23:17:00.392Z,13.38
2022-09-18T23:19:30.260Z,13.34
2022-09-18T23:21:58.085Z,13.33
2022-09-18T23:24:26.937Z,13.17
2022-09-18T23:26:58.187Z,13.24
2022-09-18T23:29:27.343Z,13.29
2022-09-18T23:31:57.261Z,13.28
2022-09-18T23:34:28.857Z,13.15
2022-09-18T23:36:58.069Z,13.13
2022-09-18T23:39:28.579Z,13.23
2022-09-18T23:41:59.264Z,13.11
2022-09-18T23:44:30.434Z,13.21
2022-09-18T23:46:58.781Z,13.12
2022-09-18T23:49:26.645Z,13.03
2022-09-18T23:51:55.744Z,12.93
2022-09-18T23:54:25.428Z,12.94
2022-09-18T23:56:53.754Z,12.98
2022-09-18T23:59:24.680Z,13.04
